Time;durP1;ratioP1;P1;durP2;ratioP2;P2;SDS_P1;SDS_P2;PMS_P1;PMS_P2;Temp;Humidity;BMP_temperature;BMP_pressure;BME280_temperature;BME280_humidity;BME280_pressure;Samples;Min_cycle;Max_cycle;Signal;HPM_P1;HPM_P2
2022/11/05 00:17:00;;;;;;;3.25;1.30;;;;;;;;;;21086499;28;20048;-71
2022/11/05 00:27:03;;;;;;;12.27;3.42;;;;;;;;;;21085574;28;20047;-70
2022/11/05 00:37:05;;;;;;;3.08;1.63;;;;;;;;;;21084527;28;20048;-70
2022/11/05 00:57:28;;;;;;;5.55;2.10;;;;;;;;;;21085646;28;20060;-69
2022/11/05 01:07:30;;;;;;;5.53;1.63;;;;;;;;;;21083028;28;20059;-70
2022/11/05 01:17:32;;;;;;;5.03;1.90;;;;;;;;;;21065353;28;20147;-69
2022/11/05 01:27:36;;;;;;;4.30;1.60;;;;;;;;;;21082059;28;20056;-70
2022/11/05 01:37:39;;;;;;;4.10;1.48;;;;;;;;;;21080666;28;20109;-69
2022/11/05 01:47:45;;;;;;;2.78;1.58;;;;;;;;;;21079761;28;20060;-69
2022/11/05 01:57:52;;;;;;;6.93;1.70;;;;;;;;;;21080834;28;20484;-69
2022/11/05 02:07:54;;;;;;;4.70;2.08;;;;;;;;;;21079983;28;20048;-70
2022/11/05 02:18:26;;;;;;;4.88;1.92;;;;;;;;;;21079679;28;20494;-70
2022/11/05 02:29:10;;;;;;;3.72;2.13;;;;;;;;;;20658408;28;20231;-67
2022/11/05 02:39:18;;;;;;;4.65;2.10;;;;;;;;;;20497675;29;20051;-69
2022/11/05 02:49:41;;;;;;;4.60;1.67;;;;;;;;;;20497346;29;20460;-69
2022/11/05 02:59:44;;;;;;;5.05;2.03;;;;;;;;;;20596562;28;20522;-70
2022/11/05 03:09:50;;;;;;;7.63;2.20;;;;;;;;;;21049166;28;20556;-68
2022/11/05 03:19:55;;;;;;;2.50;1.50;;;;;;;;;;21091280;28;20048;-70
2022/11/05 03:30:03;;;;;;;4.22;1.88;;;;;;;;;;21090972;28;20109;-69
2022/11/05 03:40:09;;;;;;;4.20;1.95;;;;;;;;;;21089076;28;20044;-67
2022/11/05 03:50:12;;;;;;;5.13;1.60;;;;;;;;;;21087896;28;20056;-70
2022/11/05 04:00:14;;;;;;;7.03;1.88;;;;;;;;;;21088137;28;20040;-69
2022/11/05 04:13:22;;;;;;;5.00;1.80;;;;;;;;;;21087806;28;20048;-66
2022/11/05 04:31:53;;;;;;;3.63;1.75;;;;;;;;;;21085315;28;19924;-70
2022/11/05 04:42:01;;;;;;;8.82;1.95;;;;;;;;;;21085131;28;20052;-65
2022/11/05 04:52:07;;;;;;;4.75;1.90;;;;;;;;;;21083320;28;20051;-68
2022/11/05 05:02:09;;;;;;;5.80;1.70;;;;;;;;;;21082474;28;20537;-65
2022/11/05 05:12:11;;;;;;;4.45;2.30;;;;;;;;;;21083188;28;20051;-68
2022/11/05 05:22:13;;;;;;;3.17;1.73;;;;;;;;;;21063487;28;20048;-66
2022/11/05 05:32:14;;;;;;;4.13;1.70;;;;;;;;;;21081146;28;20113;-66
2022/11/05 05:42:17;;;;;;;4.80;1.95;;;;;;;;;;21080787;28;20153;-70
2022/11/05 05:52:19;;;;;;;4.70;1.77;;;;;;;;;;21080176;28;20044;-66
2022/11/05 06:02:22;;;;;;;3.10;1.92;;;;;;;;;;21078901;28;20050;-67
2022/11/05 06:12:24;;;;;;;3.05;1.77;;;;;;;;;;21078848;28;20084;-66
2022/11/05 06:22:26;;;;;;;3.47;1.83;;;;;;;;;;21078785;28;20051;-70
2022/11/05 06:32:30;;;;;;;3.47;1.80;;;;;;;;;;21087408;28;20569;-67
2022/11/05 06:42:32;;;;;;;4.35;2.08;;;;;;;;;;21075913;28;20507;-70
2022/11/05 06:52:34;;;;;;;4.35;2.08;;;;;;;;;;21094285;28;20459;-68
2022/11/05 07:02:36;;;;;;;5.05;2.28;;;;;;;;;;21092295;28;20052;-66
2022/11/05 07:12:39;;;;;;;3.63;2.15;;;;;;;;;;21092081;28;20052;-68
2022/11/05 07:22:41;;;;;;;5.25;1.95;;;;;;;;;;21090628;28;20497;-68
2022/11/05 07:32:43;;;;;;;5.60;2.08;;;;;;;;;;21090361;28;20059;-69
2022/11/05 07:42:47;;;;;;;5.82;2.70;;;;;;;;;;21089948;28;20408;-66
2022/11/05 07:52:49;;;;;;;4.20;2.10;;;;;;;;;;21089893;28;20075;-66
2022/11/05 08:03:02;;;;;;;5.18;2.35;;;;;;;;;;21088336;28;20048;-68
2022/11/05 08:13:04;;;;;;;5.15;2.10;;;;;;;;;;21088384;28;20051;-66
2022/11/05 08:23:07;;;;;;;8.02;3.13;;;;;;;;;;21086553;28;20112;-69
2022/11/05 08:33:11;;;;;;;4.90;2.35;;;;;;;;;;21085336;28;20109;-70
2022/11/05 08:43:14;;;;;;;5.78;2.63;;;;;;;;;;21083929;28;20060;-71
2022/11/05 08:53:16;;;;;;;10.55;2.53;;;;;;;;;;21082595;28;20143;-69
2022/11/05 09:03:18;;;;;;;10.65;2.80;;;;;;;;;;21082190;28;20084;-67
2022/11/05 09:13:21;;;;;;;6.00;1.90;;;;;;;;;;21081983;28;20539;-71
2022/11/05 09:23:23;;;;;;;7.85;2.60;;;;;;;;;;21081675;28;20503;-67
2022/11/05 09:33:25;;;;;;;5.95;2.58;;;;;;;;;;21080283;28;20048;-67
2022/11/05 09:43:42;;;;;;;5.05;2.08;;;;;;;;;;21080149;28;20408;-68
2022/11/05 09:53:45;;;;;;;4.28;1.45;;;;;;;;;;21078971;28;20051;-69
2022/11/05 10:03:50;;;;;;;3.67;2.10;;;;;;;;;;21083218;28;20136;-71
2022/11/05 10:13:56;;;;;;;4.93;2.10;;;;;;;;;;21095946;28;20044;-69
2022/11/05 10:23:59;;;;;;;13.05;2.60;;;;;;;;;;21095397;28;20050;-70
2022/11/05 10:34:05;;;;;;;4.07;2.13;;;;;;;;;;21093328;28;20116;-69
2022/11/05 10:44:25;;;;;;;5.82;1.95;;;;;;;;;;21092381;28;20471;-69
2022/11/05 10:54:31;;;;;;;5.03;2.42;;;;;;;;;;21092451;28;20408;-69
2022/11/05 11:04:33;;;;;;;3.67;1.73;;;;;;;;;;21091302;28;20073;-69
2022/11/05 11:14:35;;;;;;;5.68;2.28;;;;;;;;;;21089831;28;20160;-67
2022/11/05 11:24:38;;;;;;;11.45;2.85;;;;;;;;;;21089501;28;20060;-67
2022/11/05 11:34:41;;;;;;;10.65;2.75;;;;;;;;;;21089609;28;20040;-69
2022/11/05 11:44:46;;;;;;;3.40;1.30;;;;;;;;;;21087416;28;20492;-68
2022/11/05 11:54:49;;;;;;;6.10;2.30;;;;;;;;;;21087730;28;20123;-70
2022/11/05 12:05:09;;;;;;;6.75;3.10;;;;;;;;;;21086142;28;20079;-67
2022/11/05 12:15:38;;;;;;;5.20;2.05;;;;;;;;;;21086480;28;20056;-70
2022/11/05 12:25:59;;;;;;;16.00;7.57;;;;;;;;;;20761368;28;20629;-68
2022/11/05 12:36:24;;;;;;;4.78;1.80;;;;;;;;;;20744441;28;20053;-68
2022/11/05 12:46:28;;;;;;;4.07;1.98;;;;;;;;;;20743157;28;20479;-66
2022/11/05 12:56:36;;;;;;;5.28;2.42;;;;;;;;;;20816394;28;20049;-67
2022/11/05 13:06:40;;;;;;;6.78;2.13;;;;;;;;;;20997784;28;20515;-69
2022/11/05 13:16:47;;;;;;;11.02;4.60;;;;;;;;;;20997000;28;20049;-69
2022/11/05 13:26:55;;;;;;;5.13;2.45;;;;;;;;;;20997160;28;20143;-69
2022/11/05 13:47:28;;;;;;;6.63;2.22;;;;;;;;;;20995043;28;20060;-67
2022/11/05 13:57:53;;;;;;;5.63;2.03;;;;;;;;;;20996711;28;20049;-70
2022/11/05 14:07:56;;;;;;;3.85;2.13;;;;;;;;;;20995375;28;20086;-67
2022/11/05 14:17:59;;;;;;;3.08;1.20;;;;;;;;;;20994432;28;20055;-68
2022/11/05 14:28:01;;;;;;;5.53;1.67;;;;;;;;;;20994682;28;20389;-66
2022/11/05 14:38:05;;;;;;;4.82;1.70;;;;;;;;;;20994399;28;20049;-68
2022/11/05 14:48:23;;;;;;;6.15;2.00;;;;;;;;;;20993763;28;20053;-69
2022/11/05 14:58:33;;;;;;;5.67;1.97;;;;;;;;;;20975203;28;20052;-66
2022/11/05 15:08:53;;;;;;;6.13;2.22;;;;;;;;;;21006951;28;20098;-68
2022/11/05 15:18:56;;;;;;;8.23;2.90;;;;;;;;;;21006403;28;20051;-68
2022/11/05 15:28:58;;;;;;;5.43;2.20;;;;;;;;;;21005862;28;20446;-67
2022/11/05 15:39:00;;;;;;;7.78;3.05;;;;;;;;;;21006239;28;20075;-68
2022/11/05 15:49:05;;;;;;;6.53;1.88;;;;;;;;;;21003653;28;20139;-66
2022/11/05 15:59:15;;;;;;;6.20;2.58;;;;;;;;;;21003406;28;20072;-66
2022/11/05 16:09:28;;;;;;;4.93;1.55;;;;;;;;;;21003166;28;20477;-70
2022/11/05 16:19:34;;;;;;;3.60;1.50;;;;;;;;;;21002074;28;20135;-69
2022/11/05 16:29:37;;;;;;;10.82;3.20;;;;;;;;;;21001171;28;20056;-69
2022/11/05 16:39:40;;;;;;;4.95;1.98;;;;;;;;;;21000637;28;20494;-70
2022/11/05 16:49:41;;;;;;;7.95;2.80;;;;;;;;;;20999158;28;20061;-70
2022/11/05 16:59:44;;;;;;;29.05;13.85;;;;;;;;;;21000004;28;20409;-70
2022/11/05 17:09:45;;;;;;;16.60;8.73;;;;;;;;;;21001166;28;20048;-67
2022/11/05 17:19:48;;;;;;;12.82;6.28;;;;;;;;;;20997068;28;20059;-66
2022/11/05 17:29:50;;;;;;;10.10;3.85;;;;;;;;;;20996972;28;20060;-67
2022/11/05 17:39:53;;;;;;;21.13;6.80;;;;;;;;;;20995976;28;20063;-69
2022/11/05 17:49:55;;;;;;;16.80;7.55;;;;;;;;;;20994976;28;20088;-66
2022/11/05 17:59:58;;;;;;;18.73;8.00;;;;;;;;;;20995774;28;20464;-66
2022/11/05 18:10:01;;;;;;;20.95;10.02;;;;;;;;;;20995464;28;20048;-69
2022/11/05 18:20:07;;;;;;;16.67;7.30;;;;;;;;;;20994325;28;20503;-66
2022/11/05 18:30:12;;;;;;;11.20;5.63;;;;;;;;;;21006681;28;20084;-70
2022/11/05 18:40:14;;;;;;;13.48;6.57;;;;;;;;;;21009618;28;20101;-65
2022/11/05 18:50:16;;;;;;;15.65;6.30;;;;;;;;;;21008182;28;20056;-69
2022/11/05 19:00:19;;;;;;;11.40;5.13;;;;;;;;;;21007748;28;20484;-69
2022/11/05 19:10:21;;;;;;;16.60;6.65;;;;;;;;;;21007525;28;20056;-70
2022/11/05 19:20:23;;;;;;;14.65;5.32;;;;;;;;;;21006906;28;20064;-65
2022/11/05 19:30:25;;;;;;;16.00;6.30;;;;;;;;;;21005889;28;20476;-70
2022/11/05 19:40:27;;;;;;;16.67;4.55;;;;;;;;;;21004962;28;20475;-69
2022/11/05 19:50:29;;;;;;;101.82;58.38;;;;;;;;;;21003869;28;20053;-70
2022/11/05 20:00:31;;;;;;;171.38;141.82;;;;;;;;;;21004215;28;20044;-70
2022/11/05 20:10:35;;;;;;;67.32;35.75;;;;;;;;;;21003122;28;20459;-69
2022/11/05 20:20:37;;;;;;;23.35;10.40;;;;;;;;;;21001873;28;20063;-69
2022/11/05 20:30:39;;;;;;;21.63;10.23;;;;;;;;;;21000829;28;20089;-67
2022/11/05 20:40:41;;;;;;;13.63;5.90;;;;;;;;;;21000135;28;20053;-68
2022/11/05 20:50:44;;;;;;;30.25;11.48;;;;;;;;;;20996830;28;20436;-69
2022/11/05 21:00:48;;;;;;;8.90;4.25;;;;;;;;;;20997625;28;20102;-69
2022/11/05 21:10:51;;;;;;;40.60;12.80;;;;;;;;;;20996896;28;20052;-70
2022/11/05 21:20:52;;;;;;;19.58;6.93;;;;;;;;;;21011687;28;20052;-71
2022/11/05 21:30:59;;;;;;;10.38;4.03;;;;;;;;;;20996346;28;20048;-68
2022/11/05 21:41:02;;;;;;;11.05;4.22;;;;;;;;;;21002318;28;20075;-67
2022/11/05 22:01:26;;;;;;;31.17;16.75;;;;;;;;;;21000936;28;20040;-70
2022/11/05 22:11:28;;;;;;;5.90;3.28;;;;;;;;;;21012078;28;20060;-70
2022/11/05 22:21:30;;;;;;;9.45;2.80;;;;;;;;;;21010792;28;20098;-69
2022/11/05 22:31:32;;;;;;;5.80;2.53;;;;;;;;;;21009915;28;20052;-70
2022/11/05 22:41:34;;;;;;;5.43;2.85;;;;;;;;;;21010077;28;20048;-68
2022/11/05 22:51:38;;;;;;;5.30;2.70;;;;;;;;;;21008488;28;20134;-68
2022/11/05 23:01:40;;;;;;;5.63;2.40;;;;;;;;;;21008728;28;20049;-69
2022/11/05 23:11:43;;;;;;;6.28;2.25;;;;;;;;;;21007484;28;20130;-69
2022/11/05 23:32:24;;;;;;;7.05;3.03;;;;;;;;;;21006983;28;20439;-68
2022/11/05 23:52:48;;;;;;;6.85;4.05;;;;;;;;;;21004035;28;20057;-70
